EGNX/EMA METAR and TAF weather

Enter ICAO airport designator
Station Type Date Time Source
EGNX METAR 2018/04/19 13:20 UTC NOAA

EGNX 191320Z 26004KT 210V310 CAVOK 24/13 Q1023


Station Type Date Time Source
EGNX Decoded METAR 2018/04/19 13:20 UTC NOAA

East Midlands, United Kingdom (EGNX) 52-50N 001-20W
Apr 19, 2018 - 09:20 AM EDT / 2018.04.19 1320 UTC
Wind: from the W (260 degrees) at 5 MPH (4 KT) (direction variable):0
Visibility: greater than 7 mile(s):0
Temperature: 75 F (24 C)
Dew Point: 55 F (13 C)
Relative Humidity: 50%
Pressure (altimeter): 30.21 in. Hg (1023 hPa)
ob: EGNX 191320Z 26004KT 210V310 CAVOK 24/13 Q1023
cycle: 13

Station Type Date Time Source
EGNX TAF 2018/04/19 12:15 UTC NOAA

TAF EGNX 191058Z 1912/2012 23006KT 9999 FEW040 PROB40
TEMPO 1923/2008 5000 HZ


Example: see airport list